createdAt,value
2022-12-03T00:00:12.387Z,11.55
2022-12-03T00:02:40.039Z,12.23
2022-12-03T00:05:07.177Z,12.55
2022-12-03T00:07:34.093Z,11.85
2022-12-03T00:10:01.065Z,12.60
2022-12-03T00:12:27.948Z,11.40
2022-12-03T00:14:55.088Z,12.45
2022-12-03T00:17:24.353Z,12.35
2022-12-03T00:19:51.260Z,12.38
2022-12-03T00:22:18.151Z,11.82
2022-12-03T00:24:45.113Z,11.40
2022-12-03T00:27:12.013Z,12.68
2022-12-03T00:29:38.907Z,11.25
2022-12-03T00:32:05.803Z,12.48
2022-12-03T00:34:32.737Z,11.35
2022-12-03T00:36:59.605Z,11.82
2022-12-03T00:39:26.484Z,11.38
2022-12-03T00:41:53.382Z,11.63
2022-12-03T00:44:20.377Z,12.05
2022-12-03T00:46:47.342Z,11.48
2022-12-03T00:49:14.323Z,11.48
2022-12-03T00:51:41.239Z,11.60
2022-12-03T00:54:08.139Z,11.77
2022-12-03T00:56:35.033Z,11.52
2022-12-03T00:59:01.935Z,11.10
2022-12-03T01:01:28.922Z,11.40
2022-12-03T01:03:55.905Z,11.25
2022-12-03T01:06:22.785Z,11.35
2022-12-03T01:08:49.660Z,10.98
2022-12-03T01:11:16.550Z,10.95
2022-12-03T01:13:43.469Z,11.57
2022-12-03T01:16:10.481Z,11.52
2022-12-03T01:18:37.458Z,10.63
2022-12-03T01:21:04.337Z,10.90
2022-12-03T01:23:31.225Z,10.95
2022-12-03T01:25:58.119Z,11.70
2022-12-03T01:28:25.015Z,10.32
2022-12-03T01:30:52.012Z,11.13
2022-12-03T01:33:18.958Z,11.25
2022-12-03T01:35:45.886Z,11.93
2022-12-03T01:38:12.839Z,10.98
2022-12-03T01:40:39.736Z,12.30
2022-12-03T01:43:06.619Z,11.77
2022-12-03T01:45:33.515Z,10.10
2022-12-03T01:48:00.397Z,11.40
2022-12-03T01:50:27.345Z,11.57
2022-12-03T01:52:54.237Z,11.48
2022-12-03T01:55:21.155Z,11.70
2022-12-03T01:57:48.050Z,11.07
2022-12-03T02:00:14.946Z,11.05
2022-12-03T02:02:41.842Z,11.25
2022-12-03T02:05:08.760Z,11.90
2022-12-03T02:07:35.688Z,11.60
2022-12-03T02:10:02.630Z,11.02
2022-12-03T02:12:29.569Z,11.27
2022-12-03T02:14:56.522Z,11.15
2022-12-03T02:17:23.414Z,11.07
2022-12-03T02:19:50.391Z,11.13
2022-12-03T02:22:17.279Z,12.93
2022-12-03T02:24:44.202Z,12.07
2022-12-03T02:27:11.118Z,11.25
2022-12-03T02:29:38.006Z,11.05
2022-12-03T02:32:04.898Z,11.77
2022-12-03T02:34:31.809Z,13.27
2022-12-03T02:36:58.698Z,11.75
2022-12-03T02:39:25.592Z,11.18
2022-12-03T02:41:52.542Z,11.52
2022-12-03T02:44:19.429Z,11.35
2022-12-03T02:46:46.388Z,11.38
2022-12-03T02:49:13.466Z,11.50
2022-12-03T02:51:40.332Z,11.48
2022-12-03T02:54:07.387Z,10.95
2022-12-03T02:56:34.270Z,11.20
2022-12-03T02:59:01.167Z,12.15
2022-12-03T03:01:28.131Z,10.60
2022-12-03T03:03:56.059Z,11.95
2022-12-03T03:06:22.951Z,11.25
2022-12-03T03:08:49.846Z,11.40
2022-12-03T03:11:16.746Z,12.30
2022-12-03T03:13:43.663Z,11.18
2022-12-03T03:16:10.684Z,11.50
2022-12-03T03:18:37.628Z,11.00
2022-12-03T03:21:04.600Z,11.90
2022-12-03T03:23:31.494Z,11.32
2022-12-03T03:25:58.400Z,12.13
2022-12-03T03:28:25.277Z,11.88
2022-12-03T03:30:52.376Z,11.60
2022-12-03T03:33:19.266Z,11.10
2022-12-03T03:35:46.250Z,11.90
2022-12-03T03:38:13.146Z,11.88
2022-12-03T03:40:40.511Z,11.05
2022-12-03T03:43:07.441Z,11.40
2022-12-03T03:45:34.371Z,12.43
2022-12-03T03:48:01.307Z,11.90
2022-12-03T03:50:28.215Z,12.32
2022-12-03T03:52:55.150Z,13.27
2022-12-03T03:55:22.059Z,11.35
2022-12-03T03:57:48.996Z,12.90
2022-12-03T04:00:15.893Z,12.60
2022-12-03T04:02:43.042Z,11.77
2022-12-03T04:05:09.950Z,12.25
2022-12-03T04:07:36.902Z,12.60
2022-12-03T04:10:06.324Z,12.10
2022-12-03T04:12:33.235Z,13.07
2022-12-03T04:15:00.289Z,13.00
2022-12-03T04:17:27.214Z,12.77
2022-12-03T04:19:54.521Z,13.20
2022-12-03T04:22:21.444Z,13.38
2022-12-03T04:24:48.802Z,13.48
2022-12-03T04:27:15.775Z,14.32
2022-12-03T04:29:42.670Z,12.38
2022-12-03T04:32:09.540Z,12.52
2022-12-03T04:34:36.458Z,12.27
2022-12-03T04:37:03.333Z,12.85
2022-12-03T04:39:30.247Z,13.57
2022-12-03T04:41:57.152Z,13.50
2022-12-03T04:44:24.028Z,12.52
2022-12-03T04:46:51.097Z,13.50
2022-12-03T04:49:20.049Z,12.52
2022-12-03T04:51:46.947Z,12.85
2022-12-03T04:54:13.857Z,13.43
2022-12-03T04:56:40.755Z,13.57
2022-12-03T04:59:11.432Z,13.02
2022-12-03T05:01:42.678Z,13.60
2022-12-03T05:04:09.636Z,12.75
2022-12-03T05:06:36.537Z,12.07
2022-12-03T05:09:03.444Z,14.40
2022-12-03T05:11:30.342Z,13.20
2022-12-03T05:13:57.225Z,13.48
2022-12-03T05:16:24.212Z,12.95
2022-12-03T05:18:51.151Z,12.25
2022-12-03T05:21:18.050Z,13.07
2022-12-03T05:23:44.962Z,12.93
2022-12-03T05:26:11.886Z,13.18
2022-12-03T05:28:38.756Z,13.57
2022-12-03T05:31:05.719Z,11.73
2022-12-03T05:33:32.650Z,12.82
2022-12-03T05:35:59.561Z,12.40
2022-12-03T05:38:26.468Z,12.27
2022-12-03T05:40:53.364Z,12.55
2022-12-03T05:43:20.276Z,12.63
2022-12-03T05:46:05.295Z,13.20
2022-12-03T05:48:32.218Z,12.70
2022-12-03T05:50:59.123Z,12.52
2022-12-03T05:53:26.010Z,12.73
2022-12-03T05:55:52.909Z,12.68
2022-12-03T05:58:19.795Z,12.15
2022-12-03T06:00:46.706Z,12.95
2022-12-03T06:03:13.757Z,11.73
2022-12-03T06:05:40.780Z,12.07
2022-12-03T06:08:07.726Z,12.45
2022-12-03T06:10:34.684Z,11.73
2022-12-03T06:13:01.578Z,13.23
2022-12-03T06:15:28.545Z,12.45
2022-12-03T06:17:55.581Z,12.00
2022-12-03T06:20:22.490Z,12.38
2022-12-03T06:22:49.370Z,11.65
2022-12-03T06:25:16.346Z,12.23
2022-12-03T06:27:43.256Z,11.68
2022-12-03T06:30:10.227Z,11.65
2022-12-03T06:32:37.111Z,11.68
2022-12-03T06:35:04.024Z,12.25
2022-12-03T06:37:30.896Z,13.05
2022-12-03T06:39:57.779Z,12.35
2022-12-03T06:42:24.958Z,12.13
2022-12-03T06:44:52.014Z,11.82
2022-12-03T06:47:21.023Z,12.02
2022-12-03T06:49:47.982Z,13.00
2022-12-03T06:52:14.879Z,12.95
2022-12-03T06:54:41.754Z,12.68
2022-12-03T06:57:08.653Z,12.82
2022-12-03T06:59:35.536Z,13.00
2022-12-03T07:02:02.491Z,13.20
2022-12-03T07:04:29.635Z,13.43
2022-12-03T07:06:56.548Z,13.32
2022-12-03T07:09:23.419Z,12.65
2022-12-03T07:11:50.295Z,12.82
2022-12-03T07:14:17.221Z,12.13
2022-12-03T07:16:45.016Z,13.32
2022-12-03T07:19:11.910Z,12.32
2022-12-03T07:21:38.798Z,12.65
2022-12-03T07:24:05.698Z,13.15
2022-12-03T07:26:32.595Z,13.00
2022-12-03T07:28:59.492Z,12.27
2022-12-03T07:31:26.414Z,12.10
2022-12-03T07:33:53.334Z,12.55
2022-12-03T07:36:20.222Z,12.05
2022-12-03T07:38:47.149Z,13.00
2022-12-03T07:41:14.060Z,12.57
2022-12-03T07:43:40.937Z,12.30
2022-12-03T07:46:07.855Z,12.20
2022-12-03T07:48:34.731Z,12.10
2022-12-03T07:51:01.640Z,13.38
2022-12-03T07:53:28.532Z,12.75
2022-12-03T07:55:55.421Z,12.95
2022-12-03T07:58:22.310Z,12.73
2022-12-03T08:00:49.230Z,12.57
2022-12-03T08:03:16.157Z,12.93
2022-12-03T08:05:43.054Z,12.35
2022-12-03T08:08:10.027Z,13.93
2022-12-03T08:10:37.000Z,12.63
2022-12-03T08:13:03.888Z,13.95
2022-12-03T08:15:36.910Z,12.65
2022-12-03T08:18:07.327Z,13.63
2022-12-03T08:20:34.201Z,13.65
2022-12-03T08:23:01.109Z,12.45
2022-12-03T08:25:27.994Z,12.20
2022-12-03T08:27:54.971Z,13.30
2022-12-03T08:30:22.950Z,12.50
2022-12-03T08:32:49.867Z,12.52
2022-12-03T08:35:16.852Z,12.30
2022-12-03T08:37:43.804Z,13.27
2022-12-03T08:40:10.720Z,12.45
2022-12-03T08:42:37.830Z,13.68
2022-12-03T08:45:04.845Z,12.38
2022-12-03T08:47:31.752Z,12.32
2022-12-03T08:49:58.673Z,13.30
2022-12-03T08:52:25.578Z,12.27
2022-12-03T08:54:52.936Z,13.02
2022-12-03T08:57:20.213Z,11.95
2022-12-03T08:59:47.175Z,12.95
2022-12-03T09:02:14.107Z,13.40
2022-12-03T09:04:41.046Z,12.75
2022-12-03T09:07:08.039Z,13.45
2022-12-03T09:09:35.003Z,12.75
2022-12-03T09:12:01.947Z,13.27
2022-12-03T09:14:28.843Z,12.00
2022-12-03T09:16:56.150Z,13.65
2022-12-03T09:19:25.723Z,12.82
2022-12-03T09:21:52.658Z,13.38
2022-12-03T09:24:19.546Z,13.00
2022-12-03T09:26:46.471Z,12.85
2022-12-03T09:29:13.369Z,13.65
2022-12-03T09:34:23.052Z,12.40
2022-12-03T09:36:50.017Z,12.40
2022-12-03T09:39:20.184Z,12.15
2022-12-03T09:42:13.460Z,12.75
2022-12-03T09:44:38.655Z,13.95
2022-12-03T09:47:05.554Z,12.85
2022-12-03T09:49:33.464Z,13.02
2022-12-03T09:52:00.384Z,13.50
2022-12-03T09:54:27.272Z,12.10
2022-12-03T09:56:54.160Z,13.10
2022-12-03T09:59:21.043Z,12.73
2022-12-03T10:01:48.248Z,12.80
2022-12-03T10:04:15.234Z,12.38
2022-12-03T10:06:45.864Z,12.90
2022-12-03T10:09:19.397Z,12.40
2022-12-03T10:11:46.347Z,12.05
2022-12-03T10:14:13.254Z,12.07
2022-12-03T10:16:40.296Z,12.48
2022-12-03T10:19:07.353Z,12.13
2022-12-03T10:21:34.243Z,12.27
2022-12-03T10:24:01.116Z,12.77
2022-12-03T10:26:28.015Z,11.82
2022-12-03T10:28:54.940Z,12.43
2022-12-03T10:31:25.092Z,12.43
2022-12-03T10:33:52.022Z,12.85
2022-12-03T10:36:19.014Z,12.90
2022-12-03T10:38:46.048Z,11.57
2022-12-03T10:41:12.944Z,13.65
2022-12-03T10:43:49.225Z,12.43
2022-12-03T10:46:16.250Z,12.85
2022-12-03T10:56:52.733Z,12.00
2022-12-03T10:59:19.626Z,13.00
2022-12-03T11:01:46.587Z,12.65
2022-12-03T11:04:13.634Z,13.63
2022-12-03T11:06:40.596Z,12.95
2022-12-03T11:09:09.272Z,13.88
2022-12-03T11:11:36.301Z,12.95
2022-12-03T11:14:03.233Z,14.00
2022-12-03T11:16:30.227Z,13.40
2022-12-03T11:18:57.193Z,13.23
2022-12-03T11:21:24.135Z,12.85
2022-12-03T11:23:51.990Z,12.63
2022-12-03T11:26:19.850Z,12.63
2022-12-03T11:28:47.031Z,12.27
2022-12-03T11:31:13.976Z,13.55
2022-12-03T11:33:40.948Z,13.98
2022-12-03T11:36:07.892Z,13.40
2022-12-03T11:38:34.793Z,14.20
2022-12-03T11:41:01.683Z,13.65
2022-12-03T11:43:28.595Z,13.13
2022-12-03T11:45:59.638Z,12.68
2022-12-03T11:48:29.623Z,13.63
2022-12-03T11:50:56.512Z,14.18
2022-12-03T11:53:23.434Z,13.43
2022-12-03T11:55:50.327Z,13.63
2022-12-03T11:58:17.236Z,13.82
2022-12-03T12:00:44.118Z,14.65
2022-12-03T12:03:11.098Z,13.68
2022-12-03T12:05:38.081Z,13.70
2022-12-03T12:08:05.035Z,12.75
2022-12-03T12:10:32.013Z,13.07
2022-12-03T12:12:58.920Z,13.40
2022-12-03T12:15:25.805Z,13.57
2022-12-03T12:17:52.701Z,13.10
2022-12-03T12:23:03.080Z,11.93
2022-12-03T12:25:30.060Z,12.45
2022-12-03T12:27:57.181Z,12.13
2022-12-03T12:30:24.183Z,12.82
2022-12-03T12:32:51.135Z,13.30
2022-12-03T12:35:18.110Z,12.90
2022-12-03T12:37:47.343Z,12.68
2022-12-03T12:40:15.573Z,13.85
2022-12-03T12:42:42.498Z,13.75
2022-12-03T12:45:09.398Z,13.35
2022-12-03T12:47:36.434Z,12.02
2022-12-03T12:50:03.422Z,12.10
2022-12-03T12:52:30.313Z,12.13
2022-12-03T12:55:00.265Z,12.85
2022-12-03T12:57:31.433Z,12.65
2022-12-03T12:59:58.319Z,12.50
2022-12-03T13:02:25.476Z,11.82
2022-12-03T13:04:52.467Z,11.55
2022-12-03T13:07:19.400Z,11.90
2022-12-03T13:09:46.280Z,11.95
2022-12-03T13:12:13.184Z,11.35
2022-12-03T13:14:40.087Z,11.80
2022-12-03T13:17:06.968Z,11.48
2022-12-03T13:19:43.512Z,11.15
2022-12-03T13:22:13.756Z,12.40
2022-12-03T13:24:40.707Z,11.07
2022-12-03T13:27:07.647Z,11.35
2022-12-03T13:29:34.546Z,11.55
2022-12-03T13:32:01.556Z,11.85
2022-12-03T13:34:28.548Z,11.88
2022-12-03T13:36:58.445Z,11.48
2022-12-03T13:39:25.863Z,11.45
2022-12-03T13:41:54.106Z,11.13
2022-12-03T13:44:25.314Z,10.57
2022-12-03T13:49:28.262Z,10.57
2022-12-03T13:51:56.804Z,10.25
2022-12-03T13:54:23.718Z,10.65
2022-12-03T13:56:50.627Z,10.52
2022-12-03T13:59:20.332Z,10.30
2022-12-03T14:01:50.040Z,11.25
2022-12-03T14:04:17.023Z,10.45
2022-12-03T14:06:43.966Z,10.25
2022-12-03T14:09:12.806Z,10.75
2022-12-03T14:11:39.710Z,11.35
2022-12-03T14:14:06.642Z,11.15
2022-12-03T14:16:33.616Z,10.48
2022-12-03T14:19:00.558Z,10.45
2022-12-03T14:21:27.433Z,10.63
2022-12-03T14:23:54.329Z,11.50
2022-12-03T14:26:21.235Z,11.55
2022-12-03T14:28:48.144Z,11.65
2022-12-03T14:31:15.093Z,11.20
2022-12-03T14:33:42.055Z,11.27
2022-12-03T14:36:08.938Z,11.38
2022-12-03T14:38:36.986Z,11.13
2022-12-03T14:41:03.886Z,11.95
2022-12-03T14:43:30.777Z,11.20
2022-12-03T14:45:57.713Z,11.63
2022-12-03T14:48:24.834Z,12.80
2022-12-03T14:50:51.727Z,12.30
2022-12-03T14:53:21.493Z,11.15
2022-12-03T14:55:52.561Z,12.18
2022-12-03T14:58:19.459Z,11.55
2022-12-03T15:00:46.369Z,11.52
2022-12-03T15:03:13.290Z,11.50
2022-12-03T15:05:40.173Z,11.93
2022-12-03T15:08:07.114Z,11.02
2022-12-03T15:10:34.104Z,11.02
2022-12-03T15:13:01.005Z,12.35
2022-12-03T15:15:27.892Z,11.68
2022-12-03T15:17:54.829Z,11.80
2022-12-03T15:20:21.751Z,10.98
2022-12-03T15:22:48.670Z,11.45
2022-12-03T15:25:15.611Z,11.27
2022-12-03T15:27:42.519Z,10.70
2022-12-03T15:30:09.415Z,11.15
2022-12-03T15:32:36.316Z,11.02
2022-12-03T15:35:03.386Z,11.60
2022-12-03T15:37:30.264Z,11.50
2022-12-03T15:39:57.469Z,11.13
2022-12-03T15:42:24.520Z,12.20
2022-12-03T15:44:51.438Z,11.15
2022-12-03T15:47:18.326Z,12.18
2022-12-03T15:49:45.221Z,10.63
2022-12-03T15:52:12.112Z,11.50
2022-12-03T15:54:39.025Z,12.32
2022-12-03T15:57:05.936Z,11.05
2022-12-03T15:59:32.883Z,11.75
2022-12-03T16:01:59.805Z,11.48
2022-12-03T16:04:26.747Z,12.40
2022-12-03T16:06:53.633Z,12.48
2022-12-03T16:09:26.656Z,11.52
2022-12-03T16:11:54.389Z,12.23
2022-12-03T16:14:21.309Z,12.27
2022-12-03T16:16:48.210Z,12.35
2022-12-03T16:19:15.143Z,11.52
2022-12-03T16:21:42.076Z,12.40
2022-12-03T16:24:09.144Z,12.65
2022-12-03T16:26:36.090Z,11.70
2022-12-03T16:29:04.097Z,12.40
2022-12-03T16:31:31.053Z,12.20
2022-12-03T16:33:58.068Z,12.63
2022-12-03T16:36:28.294Z,13.07
2022-12-03T16:38:57.276Z,12.52
2022-12-03T16:41:24.310Z,12.88
2022-12-03T16:43:54.518Z,11.77
2022-12-03T16:46:22.564Z,12.30
2022-12-03T16:48:49.666Z,12.18
2022-12-03T16:54:24.074Z,13.43
2022-12-03T16:56:51.000Z,12.98
2022-12-03T17:02:08.901Z,13.02
2022-12-03T17:04:36.067Z,12.88
2022-12-03T17:07:02.995Z,12.60
2022-12-03T17:09:29.904Z,12.63
2022-12-03T17:11:56.781Z,11.95
2022-12-03T17:14:27.278Z,11.98
2022-12-03T17:16:56.846Z,13.32
2022-12-03T17:19:23.748Z,13.55
2022-12-03T17:21:50.660Z,13.63
2022-12-03T17:24:17.559Z,12.13
2022-12-03T17:26:44.487Z,13.70
2022-12-03T17:29:11.371Z,12.95
2022-12-03T17:31:41.862Z,13.25
2022-12-03T17:36:36.421Z,12.10
2022-12-03T17:39:03.440Z,12.75
2022-12-03T17:41:30.321Z,13.93
2022-12-03T17:43:57.207Z,12.93
2022-12-03T17:46:24.164Z,13.80
2022-12-03T17:48:51.103Z,13.35
2022-12-03T17:51:17.981Z,13.48
2022-12-03T17:53:44.879Z,13.57
2022-12-03T17:56:11.768Z,12.57
2022-12-03T17:58:38.674Z,12.73
2022-12-03T18:01:05.576Z,14.13
2022-12-03T18:03:32.846Z,13.55
2022-12-03T18:05:59.758Z,12.98
2022-12-03T18:08:26.738Z,13.07
2022-12-03T18:10:53.625Z,13.52
2022-12-03T18:13:20.593Z,14.57
2022-12-03T18:15:47.602Z,13.68
2022-12-03T18:18:14.525Z,13.27
2022-12-03T18:20:41.488Z,13.18
2022-12-03T18:23:08.425Z,13.65
2022-12-03T18:25:35.317Z,14.55
2022-12-03T18:28:02.205Z,14.68
2022-12-03T18:30:29.098Z,13.10
2022-12-03T18:32:55.994Z,15.05
2022-12-03T18:35:22.916Z,14.95
2022-12-03T18:37:49.802Z,15.30
2022-12-03T18:40:16.908Z,15.82
2022-12-03T18:42:43.785Z,15.55
2022-12-03T18:45:10.703Z,15.45
2022-12-03T18:47:37.700Z,19.30
2022-12-03T18:50:04.681Z,17.50
2022-12-03T18:52:31.807Z,17.63
2022-12-03T18:54:58.699Z,19.92
2022-12-03T18:57:25.590Z,18.95
2022-12-03T18:59:52.827Z,20.08
2022-12-03T19:02:54.190Z,18.55
2022-12-03T19:05:06.994Z,19.23
2022-12-03T19:07:33.950Z,19.58
2022-12-03T19:10:01.079Z,20.98
2022-12-03T19:12:27.971Z,19.83
2022-12-03T19:14:54.877Z,19.98
2022-12-03T19:17:21.904Z,20.15
2022-12-03T19:19:49.175Z,20.02
2022-12-03T19:22:16.063Z,19.80
2022-12-03T19:24:42.949Z,21.05
2022-12-03T19:27:09.850Z,20.33
2022-12-03T19:29:36.844Z,21.17
2022-12-03T19:32:03.871Z,21.63
2022-12-03T19:34:30.888Z,22.08
2022-12-03T19:36:57.808Z,21.55
2022-12-03T19:39:24.711Z,21.02
2022-12-03T19:41:51.596Z,20.70
2022-12-03T19:44:18.506Z,21.15
2022-12-03T19:46:45.380Z,20.52
2022-12-03T19:49:12.281Z,20.95
2022-12-03T19:51:41.277Z,21.15
2022-12-03T19:54:08.228Z,20.67
2022-12-03T19:56:35.147Z,22.75
2022-12-03T19:59:02.173Z,20.98
2022-12-03T20:01:29.124Z,20.02
2022-12-03T20:03:56.070Z,21.42
2022-12-03T20:06:22.957Z,21.05
2022-12-03T20:08:49.866Z,21.67
2022-12-03T20:11:16.758Z,21.20
2022-12-03T20:13:43.870Z,21.52
2022-12-03T20:16:10.824Z,21.50
2022-12-03T20:18:37.729Z,21.98
2022-12-03T20:21:04.645Z,27.45
2022-12-03T20:23:31.555Z,26.05
2022-12-03T20:25:58.469Z,22.67
2022-12-03T20:28:25.380Z,22.80
2022-12-03T20:30:52.460Z,21.88
2022-12-03T20:33:19.341Z,22.10
2022-12-03T20:35:46.258Z,21.00
2022-12-03T20:38:13.146Z,22.58
2022-12-03T20:40:40.057Z,22.05
2022-12-03T20:43:06.952Z,23.02
2022-12-03T20:45:33.953Z,23.58
2022-12-03T20:48:00.909Z,22.15
2022-12-03T20:50:27.830Z,22.38
2022-12-03T20:53:16.695Z,22.48
2022-12-03T20:55:41.603Z,23.45
2022-12-03T20:58:08.486Z,22.13
2022-12-03T21:03:28.146Z,24.10
2022-12-03T21:06:17.570Z,21.83
2022-12-03T21:08:46.108Z,22.83
2022-12-03T21:11:19.412Z,24.50
2022-12-03T21:13:46.689Z,22.42
2022-12-03T21:16:18.407Z,23.63
2022-12-03T21:18:50.356Z,23.20
2022-12-03T21:21:17.419Z,23.15
2022-12-03T21:23:48.541Z,23.33
2022-12-03T21:26:32.364Z,21.70
2022-12-03T21:29:02.067Z,23.58
2022-12-03T21:31:32.268Z,23.02
2022-12-03T21:33:59.159Z,22.77
2022-12-03T21:36:26.070Z,23.75
2022-12-03T21:38:52.988Z,23.25
2022-12-03T21:41:19.896Z,22.38
2022-12-03T21:43:58.257Z,22.55
2022-12-03T21:47:09.405Z,22.08
2022-12-03T21:49:15.344Z,22.55
2022-12-03T21:51:42.239Z,22.80
2022-12-03T21:54:17.918Z,22.63
2022-12-03T21:56:44.830Z,22.00
2022-12-03T21:59:20.559Z,23.17
2022-12-03T22:01:54.415Z,23.00
2022-12-03T22:04:23.018Z,21.02
2022-12-03T22:07:04.963Z,22.30
2022-12-03T22:09:32.246Z,22.30
2022-12-03T22:12:08.191Z,23.60
2022-12-03T22:14:38.311Z,21.60
2022-12-03T22:19:55.359Z,22.17
2022-12-03T22:25:10.502Z,21.88
2022-12-03T22:27:47.614Z,21.92
2022-12-03T22:30:18.235Z,22.27
2022-12-03T22:38:19.344Z,21.93
2022-12-03T22:43:43.632Z,21.17
2022-12-03T22:46:10.582Z,20.55
2022-12-03T22:48:38.592Z,20.58
2022-12-03T22:51:05.534Z,22.10
2022-12-03T22:53:44.937Z,20.27
2022-12-03T22:56:18.171Z,22.20
2022-12-03T22:58:48.101Z,22.70
2022-12-03T23:01:16.076Z,22.33
2022-12-03T23:03:46.030Z,21.10
2022-12-03T23:06:20.180Z,21.98
2022-12-03T23:08:47.269Z,20.88
2022-12-03T23:11:14.328Z,21.55
2022-12-03T23:13:43.429Z,22.27
2022-12-03T23:16:10.478Z,21.58
2022-12-03T23:18:37.465Z,21.85
2022-12-03T23:21:04.598Z,21.15
2022-12-03T23:23:34.488Z,20.88
2022-12-03T23:26:01.513Z,21.77
2022-12-03T23:31:19.931Z,21.17
2022-12-03T23:33:46.970Z,21.48
2022-12-03T23:36:13.862Z,22.30
2022-12-03T23:38:40.773Z,22.98
2022-12-03T23:41:07.669Z,20.42
2022-12-03T23:43:34.557Z,21.95
2022-12-03T23:46:01.533Z,22.25
2022-12-03T23:48:28.501Z,21.50
2022-12-03T23:50:55.388Z,21.23
2022-12-03T23:53:22.295Z,21.90
2022-12-03T23:55:49.209Z,22.63
2022-12-03T23:58:16.096Z,22.73
